Time;durP1;ratioP1;P1;durP2;ratioP2;P2;SDS_P1;SDS_P2;PMS_P1;PMS_P2;Temp;Humidity;BMP_temperature;BMP_pressure;BME280_temperature;BME280_humidity;BME280_pressure;Samples;Min_cycle;Max_cycle;Signal;HPM_P1;HPM_P2
2022/12/14 00:02:11;;;;;;;40.40;17.20;;;;;;;-4.25;74.20;98718.14;103400;1299;97942;-66
2022/12/14 00:04:41;;;;;;;39.40;18.20;;;;;;;-4.25;74.21;98721.09;103440;1291;98005;-66
2022/12/14 00:07:09;;;;;;;40.10;17.10;;;;;;;-4.27;73.88;98720.25;103507;1291;111796;-65
2022/12/14 00:09:37;;;;;;;38.00;16.00;;;;;;;-4.29;74.05;98722.02;103536;1291;96220;-66
2022/12/14 00:12:10;;;;;;;41.80;18.80;;;;;;;-4.32;74.13;98724.34;103509;1295;108105;-66
2022/12/14 00:14:38;;;;;;;38.60;16.90;;;;;;;-4.33;74.23;98726.95;103396;1291;95163;-65
2022/12/14 00:17:09;;;;;;;41.40;17.30;;;;;;;-4.34;74.12;98726.61;103417;1291;95211;-66
2022/12/14 00:19:37;;;;;;;38.50;16.90;;;;;;;-4.33;74.12;98725.39;103420;1292;112520;-66
2022/12/14 00:22:05;;;;;;;38.40;17.30;;;;;;;-4.34;74.21;98726.45;103483;1299;97807;-68
2022/12/14 00:24:33;;;;;;;38.20;15.80;;;;;;;-4.34;74.13;98721.59;103480;1291;108071;-65
2022/12/14 00:27:00;;;;;;;35.80;15.90;;;;;;;-4.36;73.84;98724.22;103433;1291;95301;-69
2022/12/14 00:29:29;;;;;;;37.60;16.50;;;;;;;-4.36;74.08;98728.03;103490;1289;95174;-66
2022/12/14 00:31:57;;;;;;;41.70;18.30;;;;;;;-4.36;74.28;98728.39;103393;1297;111841;-69
2022/12/14 00:34:27;;;;;;;38.70;16.00;;;;;;;-4.37;74.07;98728.05;103466;1285;95128;-67
2022/12/14 00:36:55;;;;;;;38.30;16.10;;;;;;;-4.39;74.02;98729.81;103558;1291;107505;-65
2022/12/14 00:39:23;;;;;;;36.80;17.10;;;;;;;-4.39;74.15;98732.24;103566;1298;97891;-65
2022/12/14 00:41:51;;;;;;;37.50;15.90;;;;;;;-4.38;74.05;98731.19;103494;1291;95173;-65
2022/12/14 00:44:20;;;;;;;37.80;16.90;;;;;;;-4.38;74.12;98733.10;103473;1302;111777;-66
2022/12/14 00:46:50;;;;;;;37.80;16.00;;;;;;;-4.37;73.90;98736.55;103471;1294;95553;-64
2022/12/14 00:49:21;;;;;;;38.60;17.40;;;;;;;-4.38;73.87;98737.60;103460;1292;107978;-65
2022/12/14 00:51:48;;;;;;;35.70;15.60;;;;;;;-4.37;74.00;98734.64;103474;1300;97905;-65
2022/12/14 00:54:17;;;;;;;34.60;15.20;;;;;;;-4.38;74.06;98736.55;103472;1288;98686;-65
2022/12/14 00:56:45;;;;;;;38.20;17.30;;;;;;;-4.38;74.02;98736.02;103467;1294;111725;-64
2022/12/14 00:59:13;;;;;;;40.90;16.20;;;;;;;-4.37;73.86;98729.79;103422;1292;97995;-66
2022/12/14 01:01:41;;;;;;;34.90;15.30;;;;;;;-4.36;74.00;98736.17;103465;1294;108068;-66
2022/12/14 01:04:18;;;;;;;39.80;16.30;;;;;;;-4.36;74.22;98734.27;103546;1297;98215;-67
2022/12/14 01:06:50;;;;;;;37.40;16.70;;;;;;;-4.36;73.99;98734.45;103567;1294;95179;-65
2022/12/14 01:09:25;;;;;;;34.10;13.70;;;;;;;-4.37;74.11;98736.02;103545;1291;111964;-67
2022/12/14 01:11:53;;;;;;;35.90;16.00;;;;;;;-4.38;74.08;98729.98;103541;1298;95096;-64
2022/12/14 01:14:24;;;;;;;34.50;15.30;;;;;;;-4.39;74.04;98721.33;103430;1291;108003;-65
2022/12/14 01:16:51;;;;;;;36.00;15.70;;;;;;;-4.39;74.11;98718.05;103471;1292;97962;-65
2022/12/14 01:19:19;;;;;;;33.90;14.90;;;;;;;-4.39;74.02;98715.63;103560;1291;97917;-64
2022/12/14 01:21:52;;;;;;;35.50;16.00;;;;;;;-4.41;73.85;98710.80;103528;1299;112183;-65
2022/12/14 01:24:22;;;;;;;35.80;14.20;;;;;;;-4.41;73.99;98709.60;103518;1291;97693;-65
2022/12/14 01:26:51;;;;;;;34.80;14.30;;;;;;;-4.43;73.76;98708.24;103544;1298;108064;-65
2022/12/14 01:29:19;;;;;;;36.10;16.00;;;;;;;-4.44;73.97;98704.48;103511;1291;97887;-66
2022/12/14 01:31:47;;;;;;;33.90;14.40;;;;;;;-4.46;73.93;98703.28;103575;1291;97845;-66
2022/12/14 01:34:18;;;;;;;34.00;14.50;;;;;;;-4.50;73.86;98698.85;103556;1298;110023;-68
2022/12/14 01:36:46;;;;;;;32.90;14.40;;;;;;;-4.56;73.87;98704.84;103532;1291;97980;-66
2022/12/14 01:39:17;;;;;;;34.00;13.50;;;;;;;-4.63;73.90;98701.33;103511;1291;108217;-67
2022/12/14 01:41:51;;;;;;;35.60;14.80;;;;;;;-4.70;73.73;98702.65;103545;1298;97974;-66
2022/12/14 01:44:19;;;;;;;32.40;13.00;;;;;;;-4.75;73.83;98698.59;103559;1288;95121;-66
2022/12/14 01:46:59;;;;;;;34.20;14.30;;;;;;;-4.78;73.61;98691.71;103579;1292;111690;-66
2022/12/14 01:49:49;;;;;;;34.40;15.40;;;;;;;-4.84;73.61;98693.88;103568;1285;97863;-66
2022/12/14 01:52:42;;;;;;;37.00;17.00;;;;;;;-4.89;73.85;98692.92;103539;1297;108109;-65
2022/12/14 01:55:20;;;;;;;31.60;13.20;;;;;;;-4.94;73.69;98693.01;103547;1291;97953;-65
2022/12/14 01:58:15;;;;;;;37.20;17.70;;;;;;;-4.97;73.61;98696.86;103542;1297;95212;-64
2022/12/14 02:00:46;;;;;;;32.70;14.60;;;;;;;-5.02;73.76;98695.89;103515;1291;111734;-69
2022/12/14 02:03:41;;;;;;;38.60;17.00;;;;;;;-5.09;73.60;98692.36;103571;1298;97839;-66
2022/12/14 02:06:21;;;;;;;34.50;15.70;;;;;;;-5.19;73.34;98688.54;103512;1295;107107;-64
2022/12/14 02:08:53;;;;;;;35.80;15.80;;;;;;;-5.28;73.61;98691.60;103536;1298;96273;-65
2022/12/14 02:11:45;;;;;;;36.60;15.60;;;;;;;-5.33;73.47;98687.36;103519;1294;95263;-67
2022/12/14 02:14:14;;;;;;;32.70;13.80;;;;;;;-5.38;73.69;98693.13;103532;1292;112109;-64
2022/12/14 02:16:42;;;;;;;36.10;15.40;;;;;;;-5.44;73.54;98694.42;103542;1291;97895;-65
2022/12/14 02:19:10;;;;;;;35.10;15.30;;;;;;;-5.49;73.57;98693.29;103518;1298;108168;-65
2022/12/14 02:22:13;;;;;;;38.30;15.50;;;;;;;-5.54;73.44;98695.95;103361;1301;99135;-65
2022/12/14 02:24:53;;;;;;;35.10;15.30;;;;;;;-5.63;73.42;98693.81;103523;1298;97941;-65
2022/12/14 02:27:55;;;;;;;38.90;16.50;;;;;;;-5.69;73.48;98697.69;103549;1291;111607;-65
2022/12/14 02:30:39;;;;;;;36.10;15.80;;;;;;;-5.80;73.40;98700.60;103559;1291;97920;-65
2022/12/14 02:33:15;;;;;;;35.20;14.60;;;;;;;-5.88;73.57;98703.10;103531;1298;107441;-65
2022/12/14 02:36:02;;;;;;;37.70;16.20;;;;;;;-5.97;73.43;98705.11;103562;1292;97973;-65
2022/12/14 02:38:58;;;;;;;35.90;16.60;;;;;;;-6.05;73.36;98702.81;103454;1297;97914;-65
2022/12/14 02:41:59;;;;;;;36.40;14.40;;;;;;;-6.12;73.49;98704.81;103477;1291;112072;-64
2022/12/14 02:44:45;;;;;;;39.90;17.40;;;;;;;-6.19;73.51;98700.38;103571;1291;97878;-64
2022/12/14 02:47:32;;;;;;;36.50;15.30;;;;;;;-6.21;73.59;98701.96;103476;1291;107805;-65
2022/12/14 02:50:15;;;;;;;41.50;18.30;;;;;;;-6.26;73.53;98701.66;103425;1299;98450;-65
2022/12/14 02:53:11;;;;;;;34.70;14.30;;;;;;;-6.30;73.56;98702.21;103538;1297;97865;-65
2022/12/14 02:55:54;;;;;;;36.80;16.90;;;;;;;-6.35;73.62;98706.06;103528;1295;111700;-65
2022/12/14 02:58:37;;;;;;;37.00;17.30;;;;;;;-6.41;73.62;98704.05;103546;1298;97860;-64
2022/12/14 03:01:15;;;;;;;41.60;17.50;;;;;;;-6.45;73.66;98701.00;103489;1295;108173;-64
2022/12/14 03:03:43;;;;;;;40.80;18.30;;;;;;;-6.44;73.71;98700.13;103474;1299;97942;-65
2022/12/14 03:06:26;;;;;;;42.10;16.90;;;;;;;-6.42;73.66;98697.52;103464;1299;97964;-63
2022/12/14 03:09:03;;;;;;;39.90;17.40;;;;;;;-6.42;73.68;98694.75;103514;1291;114008;-65
2022/12/14 03:11:54;;;;;;;37.60;15.40;;;;;;;-6.44;73.58;98693.92;103551;1297;97936;-65
2022/12/14 03:14:35;;;;;;;36.40;15.20;;;;;;;-6.50;73.21;98689.83;103530;1299;107168;-65
2022/12/14 03:17:18;;;;;;;41.00;17.80;;;;;;;-6.57;73.23;98691.28;103512;1291;98011;-66
2022/12/14 03:20:20;;;;;;;38.80;17.10;;;;;;;-6.68;72.95;98690.51;103559;1292;96358;-65
2022/12/14 03:23:12;;;;;;;45.00;18.40;;;;;;;-6.81;72.88;98687.35;103495;1299;111750;-64
2022/12/14 03:25:49;;;;;;;42.00;17.20;;;;;;;-6.93;72.89;98682.80;103456;1298;97807;-65
2022/12/14 03:28:27;;;;;;;37.80;15.70;;;;;;;-7.00;73.08;98678.73;103462;1295;108012;-65
2022/12/14 03:31:08;;;;;;;44.40;17.80;;;;;;;-7.02;73.08;98680.27;103500;1295;97857;-65
2022/12/14 03:33:41;;;;;;;49.40;19.40;;;;;;;-7.07;72.99;98681.86;103402;1291;97936;-65
2022/12/14 03:36:25;;;;;;;45.20;20.40;;;;;;;-7.12;72.96;98685.70;103349;1299;111206;-65
2022/12/14 03:38:59;;;;;;;55.80;23.60;;;;;;;-7.18;72.95;98688.50;103223;1298;97859;-64
2022/12/14 03:41:36;;;;;;;55.80;23.20;;;;;;;-7.24;72.90;98689.58;103365;1291;107431;-64
2022/12/14 03:44:19;;;;;;;61.30;26.60;;;;;;;-7.30;72.86;98687.88;103382;1297;97980;-66
2022/12/14 03:47:14;;;;;;;59.50;25.80;;;;;;;-7.37;72.93;98681.05;103387;1298;96986;-65
2022/12/14 03:50:03;;;;;;;62.30;25.70;;;;;;;-7.37;73.12;98685.02;103364;1296;111592;-63
2022/12/14 03:52:50;;;;;;;55.00;21.70;;;;;;;-7.40;73.03;98684.17;103483;1298;97966;-65
2022/12/14 03:55:47;;;;;;;66.70;28.20;;;;;;;-7.41;73.01;98681.59;103376;1295;107992;-66
2022/12/14 03:58:39;;;;;;;57.70;26.10;;;;;;;-7.48;72.89;98676.79;103391;1298;98395;-65
2022/12/14 04:01:15;;;;;;;68.90;27.90;;;;;;;-7.56;72.97;98680.13;103508;1291;96560;-65
2022/12/14 04:04:27;;;;;;;67.50;31.30;;;;;;;-7.58;72.88;98677.73;103382;1291;111860;-66
2022/12/14 04:07:16;;;;;;;54.90;22.60;;;;;;;-7.63;72.79;98673.63;102844;1307;95702;-64
2022/12/14 04:18:55;;;;;;;58.10;26.10;;;;;;;-7.66;72.95;98666.39;103353;1299;108111;-64
2022/12/14 04:18:58;;;;;;;62.20;25.10;;;;;;;-7.86;72.71;98668.23;103331;1298;111179;-65
2022/12/14 04:21:56;;;;;;;61.70;26.20;;;;;;;-7.87;72.81;98668.58;103357;1291;97924;-65
2022/12/14 04:27:44;;;;;;;60.40;25.80;;;;;;;-7.94;72.75;98666.70;103256;1291;97973;-65
2022/12/14 04:30:14;;;;;;;56.30;25.00;;;;;;;-7.99;72.86;98667.25;103386;1299;96673;-65
2022/12/14 04:32:53;;;;;;;55.30;23.70;;;;;;;-8.02;72.62;98668.13;103364;1297;111445;-65
2022/12/14 04:35:41;;;;;;;56.30;22.10;;;;;;;-8.05;72.68;98667.63;103411;1291;97956;-66
2022/12/14 04:38:17;;;;;;;46.80;19.40;;;;;;;-8.08;72.69;98676.39;103466;1291;110394;-64
2022/12/14 04:40:55;;;;;;;43.00;16.90;;;;;;;-8.09;72.85;98672.98;103425;1291;95201;-65
2022/12/14 04:43:38;;;;;;;39.00;17.20;;;;;;;-8.09;72.77;98672.95;103438;1297;97912;-65
2022/12/14 04:46:27;;;;;;;41.70;16.40;;;;;;;-8.10;72.69;98670.73;103283;1298;137507;-64
2022/12/14 04:49:13;;;;;;;44.40;16.90;;;;;;;-8.13;72.74;98672.45;103449;1297;95117;-64
2022/12/14 04:52:24;;;;;;;43.90;18.30;;;;;;;-8.14;72.73;98669.38;103391;1292;107519;-64
2022/12/14 04:54:58;;;;;;;40.50;17.10;;;;;;;-8.18;72.72;98669.23;103215;1299;96681;-65
2022/12/14 04:57:38;;;;;;;41.90;17.80;;;;;;;-8.23;72.52;98666.48;103420;1298;97890;-65
2022/12/14 05:00:08;;;;;;;43.80;17.70;;;;;;;-8.27;72.64;98661.49;103257;1291;110407;-66
2022/12/14 05:03:04;;;;;;;42.40;17.10;;;;;;;-8.29;72.69;98661.16;103346;1300;97098;-67
2022/12/14 05:06:00;;;;;;;41.50;16.50;;;;;;;-8.32;72.67;98663.58;103329;1291;108101;-66
2022/12/14 05:08:34;;;;;;;38.60;14.80;;;;;;;-8.38;72.52;98659.98;103351;1297;97935;-64
2022/12/14 05:11:17;;;;;;;34.70;15.00;;;;;;;-8.45;72.38;98661.55;103373;1295;96379;-66
2022/12/14 05:14:14;;;;;;;36.30;16.70;;;;;;;-8.49;72.55;98666.75;103398;1297;111547;-65
2022/12/14 05:16:45;;;;;;;40.30;18.80;;;;;;;-8.51;72.51;98662.46;103396;1298;95244;-66
2022/12/14 05:19:18;;;;;;;45.80;18.50;;;;;;;-8.51;72.68;98661.08;103344;1297;107531;-65
2022/12/14 05:21:46;;;;;;;39.80;17.60;;;;;;;-8.53;72.55;98657.83;103238;1295;96241;-65
2022/12/14 05:24:17;;;;;;;42.50;17.40;;;;;;;-8.55;72.68;98656.63;103460;1297;98165;-64
2022/12/14 05:26:48;;;;;;;40.10;17.30;;;;;;;-8.58;72.73;98656.98;103277;1291;111838;-65
2022/12/14 05:29:16;;;;;;;42.80;18.70;;;;;;;-8.60;72.50;98658.88;103413;1298;97761;-64
2022/12/14 05:31:47;;;;;;;43.30;18.00;;;;;;;-8.62;72.56;98665.93;103368;1298;107481;-65
2022/12/14 05:34:18;;;;;;;39.40;17.60;;;;;;;-8.63;72.63;98662.32;103344;1291;98856;-67
2022/12/14 05:36:48;;;;;;;45.10;18.20;;;;;;;-8.65;72.45;98661.47;103568;1292;95260;-70
2022/12/14 05:39:16;;;;;;;41.40;17.40;;;;;;;-8.70;72.43;98661.63;103502;1297;111744;-68
2022/12/14 05:41:44;;;;;;;45.60;17.40;;;;;;;-8.75;72.23;98664.23;103503;1299;97873;-68
2022/12/14 05:44:15;;;;;;;39.20;17.00;;;;;;;-8.84;72.23;98665.27;103513;1297;107816;-66
2022/12/14 05:46:43;;;;;;;39.80;17.40;;;;;;;-8.92;72.17;98668.88;103522;1297;95304;-65
2022/12/14 05:49:11;;;;;;;40.90;16.70;;;;;;;-9.03;71.98;98666.30;103486;1298;97928;-65
2022/12/14 05:51:43;;;;;;;36.40;16.60;;;;;;;-9.10;72.16;98664.24;103488;1292;111436;-65
2022/12/14 05:54:11;;;;;;;41.50;16.10;;;;;;;-9.15;72.30;98662.70;103500;1293;97868;-65
2022/12/14 05:56:42;;;;;;;39.40;17.30;;;;;;;-9.20;72.17;98661.15;103493;1292;108063;-66
2022/12/14 05:59:14;;;;;;;45.90;20.30;;;;;;;-9.21;72.16;98660.12;103498;1297;97862;-65
2022/12/14 06:01:48;;;;;;;;;;;;;;;-9.23;72.47;98659.27;103500;1301;98077;-66
2022/12/14 06:04:20;;;;;;;42.90;16.20;;;;;;;-9.25;72.39;98659.43;103443;1298;111380;-68
2022/12/14 06:06:49;;;;;;;41.60;17.80;;;;;;;-9.25;72.41;98659.42;103472;1297;97889;-67
2022/12/14 06:09:21;;;;;;;44.60;18.00;;;;;;;-9.24;72.36;98662.52;103465;1297;108684;-66
2022/12/14 06:11:50;;;;;;;42.00;19.00;;;;;;;-9.25;72.45;98661.33;103327;1298;97831;-66
2022/12/14 06:14:18;;;;;;;47.10;19.30;;;;;;;-9.24;72.55;98658.73;103513;1291;97867;-64
2022/12/14 06:16:48;;;;;;;42.30;18.20;;;;;;;-9.23;72.59;98660.45;103509;1297;112087;-66
2022/12/14 06:19:16;;;;;;;44.20;19.30;;;;;;;-9.22;72.44;98657.71;103519;1298;97475;-65
2022/12/14 06:21:44;;;;;;;58.70;23.40;;;;;;;-9.21;72.41;98653.08;103478;1299;107734;-64
2022/12/14 06:24:15;;;;;;;50.30;22.90;;;;;;;-9.20;72.48;98651.38;103363;1299;97894;-65
2022/12/14 06:26:43;;;;;;;54.30;23.60;;;;;;;-9.14;73.07;98650.33;103469;1299;97957;-64
2022/12/14 06:29:19;;;;;;;50.00;23.10;;;;;;;-9.05;73.02;98648.95;103461;1298;111803;-67
2022/12/14 06:31:47;;;;;;;51.40;24.40;;;;;;;-8.98;72.97;98643.46;103408;1298;95157;-65
2022/12/14 06:34:18;;;;;;;51.00;23.70;;;;;;;-8.93;72.92;98642.25;103412;1298;108155;-67
2022/12/14 06:36:53;;;;;;;55.20;27.90;;;;;;;-8.89;72.83;98643.95;103481;1299;97978;-66
2022/12/14 06:39:21;;;;;;;61.30;26.10;;;;;;;-8.87;72.91;98645.33;103507;1298;97969;-66
2022/12/14 06:41:52;;;;;;;57.00;25.90;;;;;;;-8.80;73.17;98642.58;103454;1298;112307;-64
2022/12/14 06:44:22;;;;;;;58.20;26.80;;;;;;;-8.68;73.42;98644.09;103460;1291;97889;-67
2022/12/14 06:46:50;;;;;;;62.90;29.90;;;;;;;-8.55;73.59;98650.42;103390;1293;107883;-65
2022/12/14 06:49:19;;;;;;;62.90;28.90;;;;;;;-8.42;73.60;98650.20;103472;1297;97905;-65
2022/12/14 06:51:50;;;;;;;60.00;26.80;;;;;;;-8.30;73.65;98651.36;103471;1294;98172;-64
2022/12/14 06:54:22;;;;;;;63.10;29.40;;;;;;;-8.19;73.67;98649.09;103388;1292;111766;-66
2022/12/14 06:56:50;;;;;;;64.60;29.70;;;;;;;-8.09;73.61;98650.59;103443;1299;97750;-68
2022/12/14 06:59:18;;;;;;;68.70;30.30;;;;;;;-8.02;73.65;98651.95;103506;1292;107805;-66
2022/12/14 07:01:49;;;;;;;66.60;32.30;;;;;;;-7.95;73.59;98646.93;103402;1302;97944;-65
2022/12/14 07:04:20;;;;;;;72.70;33.20;;;;;;;-7.88;73.55;98645.52;103738;1298;97855;-65
2022/12/14 07:06:50;;;;;;;69.60;32.30;;;;;;;-7.81;73.59;98644.63;104738;1284;111785;-65
2022/12/14 07:09:18;;;;;;;70.60;32.10;;;;;;;-7.72;73.75;98645.77;104334;1290;95535;-66
2022/12/14 07:11:50;;;;;;;65.20;30.30;;;;;;;-7.66;73.70;98638.67;103360;1292;108052;-65
2022/12/14 07:14:18;;;;;;;69.40;32.10;;;;;;;-7.57;73.69;98638.97;103333;1293;97877;-66
2022/12/14 07:16:46;;;;;;;65.30;31.00;;;;;;;-7.49;73.59;98636.84;103384;1298;97982;-66
2022/12/14 07:19:21;;;;;;;64.60;29.20;;;;;;;-7.40;73.55;98634.90;103491;1296;111055;-65
2022/12/14 07:21:49;;;;;;;68.70;30.90;;;;;;;-7.32;73.83;98632.59;103475;1291;98413;-65
2022/12/14 07:24:24;;;;;;;64.30;30.10;;;;;;;-7.22;73.56;98635.45;103497;1298;108143;-65
2022/12/14 07:26:52;;;;;;;83.60;34.30;;;;;;;-7.15;73.50;98630.23;103488;1298;95196;-66
2022/12/14 07:29:21;;;;;;;109.50;45.90;;;;;;;-7.11;73.41;98627.25;103512;1298;97999;-66
2022/12/14 07:31:50;;;;;;;154.90;65.90;;;;;;;-7.08;73.39;98626.54;103340;1300;111696;-65
2022/12/14 07:34:18;;;;;;;164.70;73.20;;;;;;;-7.08;73.24;98630.67;103543;1294;95144;-65
2022/12/14 07:36:52;;;;;;;196.60;81.30;;;;;;;-7.08;73.05;98631.89;103501;1291;107862;-65
2022/12/14 07:39:24;;;;;;;156.90;69.40;;;;;;;-7.09;73.00;98632.74;103522;1292;97957;-65
2022/12/14 07:41:53;;;;;;;145.20;64.30;;;;;;;-7.10;73.14;98637.41;103343;1298;97824;-64
2022/12/14 07:44:22;;;;;;;158.20;68.00;;;;;;;-7.11;72.97;98639.66;103464;1295;111799;-65
2022/12/14 07:46:54;;;;;;;159.60;73.70;;;;;;;-7.09;73.01;98640.17;103474;1299;97965;-65
2022/12/14 07:49:22;;;;;;;163.30;79.70;;;;;;;-7.06;73.15;98643.93;103515;1297;108160;-66
2022/12/14 07:51:54;;;;;;;177.90;85.00;;;;;;;-7.00;73.15;98644.06;103529;1297;97869;-66
2022/12/14 07:54:23;;;;;;;189.30;90.10;;;;;;;-6.94;73.40;98637.63;103556;1296;97958;-66
2022/12/14 07:56:55;;;;;;;208.40;101.40;;;;;;;-6.87;73.44;98628.94;103558;1291;111690;-66
2022/12/14 07:59:23;;;;;;;231.00;109.00;;;;;;;-6.79;73.44;98625.77;103580;1293;97879;-65
2022/12/14 08:01:55;;;;;;;221.30;106.40;;;;;;;-6.72;73.49;98622.25;103510;1291;107751;-66
2022/12/14 08:04:23;;;;;;;221.40;108.00;;;;;;;-6.63;73.50;98621.99;103326;1294;97895;-66
2022/12/14 08:06:51;;;;;;;225.30;110.20;;;;;;;-6.55;73.57;98619.67;103531;1297;95176;-66
2022/12/14 08:09:22;;;;;;;217.70;105.10;;;;;;;-6.48;73.53;98622.70;103428;1299;111745;-68
2022/12/14 08:11:50;;;;;;;220.30;106.30;;;;;;;-6.41;73.54;98617.11;103527;1289;97972;-67
2022/12/14 08:14:21;;;;;;;214.70;101.20;;;;;;;-6.35;73.57;98613.58;103432;1299;108769;-66
2022/12/14 08:16:53;;;;;;;240.10;113.70;;;;;;;-6.29;73.58;98606.42;103470;1286;97861;-65
2022/12/14 08:19:21;;;;;;;225.70;107.40;;;;;;;-6.24;73.59;98603.27;103480;1298;98012;-65
2022/12/14 08:21:49;;;;;;;239.60;117.40;;;;;;;-6.19;73.55;98608.73;103441;1293;111704;-66
2022/12/14 08:24:17;;;;;;;248.50;117.30;;;;;;;-6.13;73.65;98605.21;103501;1291;97603;-66
2022/12/14 08:26:45;;;;;;;218.30;110.40;;;;;;;-6.07;73.77;98610.99;103534;1297;108109;-66
2022/12/14 08:29:18;;;;;;;204.70;101.00;;;;;;;-6.00;73.76;98613.47;103497;1291;95135;-65
2022/12/14 08:31:48;;;;;;;204.20;105.20;;;;;;;-5.91;73.82;98610.41;103412;1299;97968;-65
2022/12/14 08:34:21;;;;;;;192.60;92.50;;;;;;;-5.82;73.94;98610.65;103536;1297;111778;-65
2022/12/14 08:36:51;;;;;;;184.20;91.70;;;;;;;-5.74;73.91;98601.03;103568;1297;97875;-65
2022/12/14 08:39:21;;;;;;;198.20;96.90;;;;;;;-5.65;73.87;98598.65;103354;1299;108162;-65
2022/12/14 08:41:50;;;;;;;216.70;106.40;;;;;;;-5.58;74.00;98600.46;103508;1297;97934;-65
2022/12/14 08:44:18;;;;;;;243.90;122.20;;;;;;;-5.50;74.09;98594.47;103547;1299;97924;-65
2022/12/14 08:46:46;;;;;;;249.10;126.80;;;;;;;-5.42;74.12;98592.27;103272;1300;111978;-65
2022/12/14 08:49:18;;;;;;;241.70;119.50;;;;;;;-5.34;73.98;98589.04;103464;1299;95544;-66
2022/12/14 08:52:00;;;;;;;232.80;120.00;;;;;;;-5.25;74.17;98585.60;103283;1298;108296;-66
2022/12/14 08:54:31;;;;;;;207.70;103.90;;;;;;;-5.16;74.10;98581.83;103486;1299;95099;-66
2022/12/14 08:57:06;;;;;;;208.40;102.40;;;;;;;-5.08;74.15;98574.93;103508;1295;97871;-68
2022/12/14 08:59:34;;;;;;;184.90;92.20;;;;;;;-4.99;74.12;98574.27;103451;1299;111165;-68
2022/12/14 09:02:22;;;;;;;124.50;65.50;;;;;;;-4.88;74.27;98576.50;103547;1297;97980;-67
2022/12/14 09:04:53;;;;;;;138.40;69.40;;;;;;;-4.78;74.18;98577.88;103521;1299;107460;-66
2022/12/14 09:07:21;;;;;;;139.30;69.10;;;;;;;-4.66;74.15;98573.34;103563;1291;96488;-65
2022/12/14 09:09:50;;;;;;;137.60;69.40;;;;;;;-4.56;74.18;98570.20;103523;1299;97868;-66
2022/12/14 09:12:18;;;;;;;120.20;63.20;;;;;;;-4.47;74.20;98567.42;103461;1291;111383;-66
2022/12/14 09:14:48;;;;;;;115.10;61.10;;;;;;;-4.38;74.22;98561.73;103466;1298;97941;-66
2022/12/14 09:17:21;;;;;;;105.30;51.60;;;;;;;-4.28;74.35;98561.52;103546;1298;107790;-66
2022/12/14 09:19:49;;;;;;;103.60;55.20;;;;;;;-4.18;74.44;98557.86;103519;1297;98219;-66
2022/12/14 09:22:17;;;;;;;117.30;57.50;;;;;;;-4.09;74.52;98559.23;103480;1285;95131;-66
2022/12/14 09:24:45;;;;;;;61.90;31.20;;;;;;;-4.00;74.38;98559.54;103441;1291;111774;-66
2022/12/14 09:27:18;;;;;;;53.10;25.00;;;;;;;-3.96;74.28;98560.50;103405;1299;96941;-66
2022/12/14 09:29:51;;;;;;;49.60;23.70;;;;;;;-3.98;74.24;98558.64;103455;1297;108805;-67
2022/12/14 09:32:22;;;;;;;47.10;22.60;;;;;;;-3.99;74.31;98555.20;103466;1297;98406;-68
2022/12/14 09:34:51;;;;;;;45.70;23.20;;;;;;;-4.00;74.20;98556.42;103530;1295;97858;-65
2022/12/14 09:37:23;;;;;;;45.10;22.60;;;;;;;-3.98;74.14;98546.33;103427;1298;111533;-66
2022/12/14 09:39:51;;;;;;;46.20;20.90;;;;;;;-3.93;74.46;98548.30;103432;1291;97009;-66
2022/12/14 09:43:08;;;;;;;43.00;19.30;;;;;;;-3.91;74.42;98547.58;103291;1294;108118;-68
2022/12/14 09:45:52;;;;;;;37.40;17.80;;;;;;;-3.95;74.23;98548.17;103388;1298;96262;-67
2022/12/14 09:48:26;;;;;;;39.10;18.90;;;;;;;-3.95;74.25;98542.28;103358;1293;97003;-67
2022/12/14 09:50:58;;;;;;;41.50;19.30;;;;;;;-3.90;74.19;98534.39;103478;1291;111102;-67
2022/12/14 09:53:30;;;;;;;39.50;18.30;;;;;;;-3.90;74.29;98523.29;103447;1292;97957;-66
2022/12/14 09:56:03;;;;;;;40.10;17.40;;;;;;;-3.89;74.40;98520.49;103423;1291;107203;-68
2022/12/14 09:58:35;;;;;;;39.70;18.60;;;;;;;-3.89;74.14;98523.45;103528;1299;98002;-66
2022/12/14 10:01:33;;;;;;;41.50;19.30;;;;;;;-3.92;74.24;98518.84;103546;1291;97889;-66
2022/12/14 10:04:50;;;;;;;40.30;18.00;;;;;;;-3.93;74.27;98513.67;103399;1291;110627;-66
2022/12/14 10:08:06;;;;;;;37.70;17.30;;;;;;;-3.85;74.26;98514.00;103244;1297;97733;-67
2022/12/14 10:11:10;;;;;;;37.90;18.70;;;;;;;-3.74;74.26;98513.06;103369;1284;108249;-66
2022/12/14 10:14:16;;;;;;;43.70;19.60;;;;;;;-3.58;74.20;98516.32;103511;1296;98573;-68
2022/12/14 10:17:11;;;;;;;40.40;19.10;;;;;;;-3.37;74.29;98504.19;103481;1299;97974;-66
2022/12/14 10:19:57;;;;;;;46.20;22.40;;;;;;;-3.13;74.45;98498.20;103419;1298;111773;-66
2022/12/14 10:22:34;;;;;;;36.80;16.30;;;;;;;-2.92;74.50;98496.26;103417;1294;95253;-66
2022/12/14 10:25:26;;;;;;;35.70;17.40;;;;;;;-2.79;74.56;98491.94;103517;1297;107645;-67
2022/12/14 10:28:02;;;;;;;37.00;17.10;;;;;;;-2.78;74.40;98487.20;103434;1297;95176;-66
2022/12/14 10:30:49;;;;;;;31.50;15.10;;;;;;;-2.77;74.21;98486.14;103395;1294;95212;-66
2022/12/14 10:33:28;;;;;;;31.00;14.30;;;;;;;-2.76;74.25;98491.67;103430;1297;111203;-66
2022/12/14 10:36:21;;;;;;;37.70;16.70;;;;;;;-2.75;74.14;98489.03;103432;1295;97854;-65
2022/12/14 10:39:17;;;;;;;32.70;14.70;;;;;;;-2.74;74.15;98488.84;103559;1297;107838;-67
2022/12/14 10:41:56;;;;;;;30.70;13.80;;;;;;;-2.79;74.01;98485.31;103351;1302;98166;-68
2022/12/14 10:44:42;;;;;;;33.20;15.80;;;;;;;-2.77;73.97;98481.11;103507;1297;97907;-68
2022/12/14 10:47:36;;;;;;;29.90;13.20;;;;;;;-2.78;73.91;98472.28;103465;1298;111805;-66
2022/12/14 10:50:44;;;;;;;32.30;14.10;;;;;;;-2.78;73.82;98463.59;103329;1300;97891;-67
2022/12/14 10:53:37;;;;;;;31.70;13.90;;;;;;;-2.76;73.99;98459.38;103499;1291;110233;-68
2022/12/14 10:56:34;;;;;;;32.60;14.00;;;;;;;-2.76;73.79;98460.08;103334;1303;98000;-67
2022/12/14 10:59:28;;;;;;;28.80;13.50;;;;;;;-2.81;73.81;98457.08;103500;1292;95260;-66
2022/12/14 11:02:15;;;;;;;29.20;13.50;;;;;;;-2.87;73.34;98452.23;103486;1295;111845;-67
2022/12/14 11:05:00;;;;;;;29.40;14.70;;;;;;;-2.92;74.04;98447.35;103498;1297;97882;-66
2022/12/14 11:07:31;;;;;;;29.70;13.60;;;;;;;-2.92;73.61;98451.34;103528;1299;107309;-66
2022/12/14 11:10:22;;;;;;;28.10;12.80;;;;;;;-2.91;74.01;98452.70;103502;1291;97840;-66
2022/12/14 11:12:59;;;;;;;30.80;13.70;;;;;;;-2.92;73.85;98452.54;103488;1297;97870;-67
2022/12/14 11:15:36;;;;;;;30.00;15.30;;;;;;;-2.95;73.77;98451.05;103413;1292;111049;-66
2022/12/14 11:18:16;;;;;;;28.00;12.40;;;;;;;-2.98;73.64;98446.81;103423;1299;97991;-65
2022/12/14 11:21:16;;;;;;;32.00;14.00;;;;;;;-2.99;73.84;98445.77;103433;1294;107508;-65
2022/12/14 11:23:44;;;;;;;28.80;13.40;;;;;;;-2.94;74.01;98444.10;103536;1291;97488;-65
2022/12/14 11:26:33;;;;;;;29.10;13.80;;;;;;;-2.92;73.86;98437.98;103471;1292;95144;-67
2022/12/14 11:29:08;;;;;;;29.30;15.00;;;;;;;-2.89;73.95;98429.91;103473;1297;110711;-65
2022/12/14 11:31:47;;;;;;;29.90;13.60;;;;;;;-2.85;74.10;98436.71;103524;1291;95552;-66
2022/12/14 11:34:38;;;;;;;32.90;14.70;;;;;;;-2.85;73.79;98435.00;103333;1299;107203;-66
2022/12/14 11:37:32;;;;;;;32.70;14.90;;;;;;;-2.90;73.87;98430.96;103280;1299;97954;-65
2022/12/14 11:40:05;;;;;;;;;;;;;;;-2.91;73.76;98426.31;103504;1299;97735;-67
2022/12/14 11:42:36;;;;;;;31.30;13.70;;;;;;;-2.94;74.07;98423.11;103509;1295;112032;-67
2022/12/14 11:45:51;;;;;;;29.60;13.60;;;;;;;-2.94;73.87;98418.59;103510;1291;95379;-66
2022/12/14 11:48:24;;;;;;;28.50;14.30;;;;;;;-2.95;73.54;98412.89;103271;1299;108417;-67
2022/12/14 11:50:57;;;;;;;;;;;;;;;-2.94;73.94;98415.65;103563;1293;98009;-66
2022/12/14 11:53:25;;;;;;;28.60;13.20;;;;;;;-2.97;73.69;98408.60;103528;1293;97860;-66
2022/12/14 11:55:59;;;;;;;31.70;14.40;;;;;;;-2.94;73.99;98407.13;103448;1297;110209;-67
2022/12/14 11:58:35;;;;;;;32.80;14.10;;;;;;;-2.92;73.74;98406.91;103487;1297;95147;-68